Atascocita, Texas
Current Conditions -  °F | °C
As of 7:53 AM on Thursday 27 Nov 2014 (Local Time) from KIAH Reporting Station
Clear Clear  
Wind Chill: 43°   Ceiling: Unl
Heat Index: 47°   Visibility: 10mi
Dew Point: 36°   Wind: 9mph
Humidity: 66%   Direction: 40°NE
Pressure: 30.47"   Gusts: NA
Location:  29.9871°N, 95.1826°W
Report Text: KIAH 271353Z 04008KT 10SM CLR 08/02 A3047 RMK AO2 SLP319 T00830022
Loading
Personal Weather Stations






























Interactive Weather Map New forecast layout! Learn more

10-Day Weather Forecast

Advertisements
Track Severe Weather on mobile